Time;durP1;ratioP1;P1;durP2;ratioP2;P2;SDS_P1;SDS_P2;PMS_P1;PMS_P2;Temp;Humidity;BMP_temperature;BMP_pressure;BME280_temperature;BME280_humidity;BME280_pressure;Samples;Min_cycle;Max_cycle;Signal;HPM_P1;HPM_P2
2021/12/13 00:02:34;;;;;;;21.38;3.25;;;12.40;99.90;;;;;;5066160;28;20427;-71
2021/12/13 00:05:23;;;;;;;22.55;3.45;;;12.50;99.90;;;;;;5065735;28;20411;-72
2021/12/13 00:08:00;;;;;;;20.63;3.17;;;12.40;99.90;;;;;;5069565;28;20421;-73
2021/12/13 00:10:38;;;;;;;19.20;2.90;;;12.50;99.90;;;;;;5051679;28;20453;-71
2021/12/13 00:13:17;;;;;;;14.70;2.72;;;12.50;99.90;;;;;;5069770;28;20414;-72
2021/12/13 00:15:54;;;;;;;13.60;2.53;;;12.50;99.90;;;;;;5071452;28;20411;-71
2021/12/13 00:18:27;;;;;;;20.15;2.83;;;12.50;99.90;;;;;;5068207;28;20411;-73
2021/12/13 00:21:05;;;;;;;13.25;2.55;;;12.60;99.90;;;;;;5069340;28;20419;-72
2021/12/13 00:23:44;;;;;;;13.90;2.47;;;12.50;99.90;;;;;;5068314;28;20511;-73
2021/12/13 00:26:19;;;;;;;16.70;3.08;;;12.60;99.90;;;;;;5055558;28;20427;-74
2021/12/13 00:28:45;;;;;;;14.10;2.50;;;12.60;99.90;;;;;;5070909;28;20426;-73
2021/12/13 00:31:32;;;;;;;12.18;2.10;;;12.60;99.90;;;;;;5069634;28;20844;-72
2021/12/13 00:34:20;;;;;;;14.02;2.40;;;12.60;99.90;;;;;;5052997;28;21028;-72
2021/12/13 00:37:06;;;;;;;16.20;2.50;;;12.60;99.90;;;;;;5093565;28;20760;-72
2021/12/13 00:39:45;;;;;;;13.77;2.22;;;12.60;99.90;;;;;;5052861;28;20411;-71
2021/12/13 00:42:12;;;;;;;11.95;2.20;;;12.60;99.90;;;;;;5069633;28;20498;-72
2021/12/13 00:44:44;;;;;;;13.82;2.20;;;12.60;99.90;;;;;;5062274;28;20417;-72
2021/12/13 00:47:18;;;;;;;11.35;2.17;;;12.60;99.90;;;;;;5065544;28;20415;-72
2021/12/13 00:49:49;;;;;;;10.98;2.40;;;12.60;99.90;;;;;;5022548;28;20838;-71
2021/12/13 00:52:17;;;;;;;11.80;2.33;;;12.60;99.90;;;;;;5047663;28;20420;-71
2021/12/13 00:54:44;;;;;;;12.40;2.27;;;12.60;99.90;;;;;;5048512;28;20498;-72
2021/12/13 00:57:42;;;;;;;11.27;2.08;;;12.60;99.90;;;;;;5060831;28;20768;-72
2021/12/13 01:00:20;;;;;;;12.23;2.08;;;12.60;99.90;;;;;;5061885;28;20448;-71
2021/12/13 01:02:48;;;;;;;9.68;1.80;;;12.60;99.90;;;;;;5063664;28;20772;-72
2021/12/13 01:05:48;;;;;;;9.60;2.28;;;12.60;99.90;;;;;;5061221;28;20931;-72
2021/12/13 01:08:51;;;;;;;9.45;1.85;;;12.60;99.90;;;;;;5067274;28;20403;-73
2021/12/13 01:11:54;;;;;;;9.33;1.97;;;12.60;99.90;;;;;;5046280;28;20422;-72
2021/12/13 01:15:02;;;;;;;9.18;1.67;;;12.60;99.90;;;;;;5024629;28;20428;-71
2021/12/13 01:17:42;;;;;;;7.90;1.80;;;12.60;99.90;;;;;;5066883;28;21179;-71
2021/12/13 01:20:27;;;;;;;10.30;1.70;;;12.60;99.90;;;;;;5059169;28;20425;-71
2021/12/13 01:22:59;;;;;;;7.53;1.50;;;12.70;99.90;;;;;;5052319;28;20420;-71
2021/12/13 01:25:46;;;;;;;9.38;1.50;;;12.70;99.90;;;;;;5043294;28;20449;-71
2021/12/13 01:28:28;;;;;;;8.63;1.10;;;12.70;99.90;;;;;;5066445;28;20414;-73
2021/12/13 01:31:00;;;;;;;11.43;1.40;;;12.70;99.90;;;;;;5038341;28;20423;-72
2021/12/13 01:33:28;;;;;;;7.43;1.25;;;12.70;99.90;;;;;;5067332;28;20431;-72
2021/12/13 01:35:58;;;;;;;5.80;1.20;;;12.70;99.90;;;;;;5041476;28;20406;-71
2021/12/13 01:38:33;;;;;;;5.03;1.23;;;12.70;99.90;;;;;;5049174;28;20404;-73
2021/12/13 01:41:19;;;;;;;10.00;1.23;;;12.70;99.90;;;;;;5069088;28;20964;-71
2021/12/13 01:43:51;;;;;;;5.57;1.20;;;12.70;99.90;;;;;;5070877;28;20415;-73
2021/12/13 01:46:21;;;;;;;5.37;1.10;;;12.70;99.90;;;;;;5067706;28;20434;-72
2021/12/13 01:48:49;;;;;;;4.83;1.23;;;12.70;99.90;;;;;;5069327;28;20403;-72
2021/12/13 01:51:19;;;;;;;4.07;1.00;;;12.70;99.90;;;;;;5067679;28;20431;-72
2021/12/13 01:53:49;;;;;;;3.53;0.90;;;12.80;99.90;;;;;;5054242;28;20933;-71
2021/12/13 01:56:38;;;;;;;5.00;1.25;;;12.70;99.90;;;;;;5071790;28;20412;-72
2021/12/13 01:59:27;;;;;;;6.55;1.15;;;12.80;99.90;;;;;;5069060;28;20413;-75
2021/12/13 02:01:53;;;;;;;7.05;1.20;;;12.80;99.90;;;;;;5068242;28;20411;-70
2021/12/13 02:04:22;;;;;;;3.80;1.08;;;12.80;99.90;;;;;;5068042;28;20415;-73
2021/12/13 02:06:51;;;;;;;8.13;1.27;;;12.80;99.90;;;;;;5067886;28;20422;-73
2021/12/13 02:09:25;;;;;;;7.78;1.08;;;12.80;99.90;;;;;;5065767;28;20403;-73
2021/12/13 02:11:56;;;;;;;5.95;1.20;;;12.80;99.90;;;;;;5066659;28;20418;-72
2021/12/13 02:14:27;;;;;;;4.30;1.00;;;12.70;99.90;;;;;;5068620;28;20419;-70
2021/12/13 02:17:01;;;;;;;5.82;1.20;;;12.80;99.90;;;;;;5067870;28;20515;-72
2021/12/13 02:19:41;;;;;;;4.85;1.20;;;12.80;99.90;;;;;;5068869;28;20881;-72
2021/12/13 02:22:58;;;;;;;4.78;1.27;;;12.80;99.90;;;;;;5068066;28;20491;-71
2021/12/13 02:25:30;;;;;;;8.20;1.50;;;12.80;99.90;;;;;;5022296;28;20416;-71
2021/12/13 02:28:04;;;;;;;5.75;1.38;;;12.70;99.90;;;;;;5068948;28;20476;-72
2021/12/13 02:30:48;;;;;;;9.00;1.98;;;12.80;99.90;;;;;;5048436;28;20915;-72
2021/12/13 02:33:52;;;;;;;7.55;1.70;;;12.70;99.90;;;;;;5051745;28;20421;-71
2021/12/13 02:36:21;;;;;;;7.10;1.77;;;12.70;99.90;;;;;;5033116;28;20450;-72
2021/12/13 02:38:49;;;;;;;4.70;2.00;;;12.70;99.90;;;;;;5068354;28;20411;-72
2021/12/13 02:41:19;;;;;;;5.35;1.80;;;12.70;99.90;;;;;;5065439;28;20439;-72
2021/12/13 02:43:50;;;;;;;6.38;2.00;;;12.70;99.90;;;;;;5066770;28;20461;-72
2021/12/13 02:46:17;;;;;;;7.25;2.08;;;12.70;99.90;;;;;;5063284;28;20419;-72
2021/12/13 02:48:48;;;;;;;6.82;2.30;;;12.70;99.90;;;;;;5062893;28;20415;-71
2021/12/13 02:51:28;;;;;;;7.70;2.42;;;12.70;99.90;;;;;;5041519;28;20416;-73
2021/12/13 02:54:05;;;;;;;7.25;2.30;;;12.70;99.90;;;;;;5065321;28;20461;-71
2021/12/13 02:56:41;;;;;;;6.63;2.55;;;12.70;99.90;;;;;;5057209;28;20493;-73
2021/12/13 02:59:08;;;;;;;7.00;2.40;;;12.70;99.90;;;;;;5067523;28;20388;-71
2021/12/13 03:01:56;;;;;;;6.60;2.70;;;12.70;99.90;;;;;;5061433;28;20411;-71
2021/12/13 03:04:24;;;;;;;7.97;2.80;;;12.60;99.90;;;;;;5067035;28;20915;-71
2021/12/13 03:06:53;;;;;;;10.15;2.90;;;12.60;99.90;;;;;;5060683;28;20501;-72
2021/12/13 03:09:23;;;;;;;7.55;2.70;;;12.60;99.90;;;;;;5059800;28;20495;-71
2021/12/13 03:11:52;;;;;;;6.22;2.53;;;12.60;99.90;;;;;;5044472;28;20505;-73
2021/12/13 03:14:23;;;;;;;7.57;3.03;;;12.60;99.90;;;;;;5065910;28;20411;-72
2021/12/13 03:17:04;;;;;;;8.47;2.90;;;12.60;99.90;;;;;;5061722;28;20412;-70
2021/12/13 03:19:42;;;;;;;8.07;2.70;;;12.60;99.90;;;;;;5058095;28;20815;-71
2021/12/13 03:22:07;;;;;;;8.63;2.88;;;12.60;99.90;;;;;;5041185;28;20492;-73
2021/12/13 03:24:36;;;;;;;11.03;3.27;;;12.60;99.90;;;;;;5064509;28;20903;-71
2021/12/13 03:27:08;;;;;;;6.97;3.17;;;12.60;99.90;;;;;;5065213;28;20395;-70
2021/12/13 03:29:53;;;;;;;8.48;3.40;;;12.60;99.90;;;;;;5064010;28;20450;-73
2021/12/13 03:32:21;;;;;;;6.35;3.40;;;12.50;99.90;;;;;;5058654;28;20414;-72
2021/12/13 03:35:04;;;;;;;10.05;3.42;;;12.50;99.90;;;;;;5063084;28;20408;-70
2021/12/13 03:37:30;;;;;;;8.25;3.40;;;12.50;99.90;;;;;;5059623;28;20408;-71
2021/12/13 03:40:00;;;;;;;6.87;3.50;;;12.50;99.90;;;;;;5060266;28;20415;-72
2021/12/13 03:42:32;;;;;;;8.77;3.50;;;12.50;99.90;;;;;;5066758;28;20418;-72
2021/12/13 03:45:03;;;;;;;11.60;3.50;;;12.50;99.90;;;;;;5079971;28;20413;-71
2021/12/13 03:47:36;;;;;;;9.55;3.72;;;12.50;99.90;;;;;;5064749;28;20415;-72
2021/12/13 03:50:09;;;;;;;7.60;3.40;;;12.60;99.90;;;;;;5062792;28;20428;-72
2021/12/13 03:52:38;;;;;;;8.00;3.45;;;12.50;99.90;;;;;;5070005;28;22837;-71
2021/12/13 03:55:05;;;;;;;8.38;4.15;;;12.50;99.90;;;;;;5076932;28;20424;-71
2021/12/13 03:57:32;;;;;;;11.15;4.57;;;12.50;99.90;;;;;;5069173;28;20399;-72
2021/12/13 03:59:59;;;;;;;7.45;4.22;;;12.50;99.90;;;;;;5063626;28;20990;-71
2021/12/13 04:02:37;;;;;;;8.85;4.00;;;12.50;99.90;;;;;;5080037;28;20419;-72
2021/12/13 04:05:11;;;;;;;8.20;4.70;;;12.50;99.90;;;;;;5049437;28;20430;-72
2021/12/13 04:07:46;;;;;;;11.63;4.50;;;12.50;99.90;;;;;;5068258;28;20464;-71
2021/12/13 04:10:19;;;;;;;8.40;4.55;;;12.40;99.90;;;;;;5066770;28;20486;-72
2021/12/13 04:12:50;;;;;;;9.10;5.05;;;12.40;99.90;;;;;;5068518;28;20410;-70
2021/12/13 04:15:34;;;;;;;9.87;4.93;;;12.40;99.90;;;;;;5064331;28;20419;-71
2021/12/13 04:18:15;;;;;;;11.52;5.45;;;12.40;99.90;;;;;;5070392;28;20433;-71
2021/12/13 04:20:42;;;;;;;10.45;5.40;;;12.40;99.90;;;;;;5063582;28;20765;-73
2021/12/13 04:23:18;;;;;;;10.32;5.28;;;12.40;99.90;;;;;;5066900;28;20427;-71
2021/12/13 04:25:46;;;;;;;9.15;5.15;;;12.40;99.90;;;;;;5064339;28;20495;-72
2021/12/13 04:28:25;;;;;;;9.60;5.50;;;12.40;99.90;;;;;;5068429;28;20438;-72
2021/12/13 04:30:55;;;;;;;10.60;5.78;;;12.40;99.90;;;;;;5045971;28;20427;-72
2021/12/13 04:33:26;;;;;;;8.02;5.38;;;12.40;99.90;;;;;;5068796;28;20872;-71
2021/12/13 04:35:57;;;;;;;10.23;5.90;;;12.50;99.90;;;;;;5064066;28;20417;-73
2021/12/13 04:38:48;;;;;;;10.07;6.20;;;12.50;99.90;;;;;;5068252;28;20438;-72
2021/12/13 04:41:23;;;;;;;9.48;6.03;;;12.50;99.90;;;;;;5061581;28;20464;-71
2021/12/13 04:43:53;;;;;;;10.75;6.60;;;12.50;99.90;;;;;;5047630;28;20411;-73
2021/12/13 04:46:21;;;;;;;12.33;6.53;;;12.50;99.90;;;;;;5060984;28;20502;-74
2021/12/13 04:48:55;;;;;;;13.20;6.93;;;12.50;99.90;;;;;;5070025;28;20453;-72
2021/12/13 04:51:26;;;;;;;11.32;6.95;;;12.50;99.90;;;;;;5064864;28;20473;-71
2021/12/13 04:53:53;;;;;;;10.43;6.50;;;12.50;99.90;;;;;;5067420;28;20419;-73
2021/12/13 04:56:26;;;;;;;10.63;7.37;;;12.50;99.90;;;;;;5060945;28;20415;-71
2021/12/13 04:58:54;;;;;;;11.75;6.85;;;12.50;99.90;;;;;;5046717;28;20453;-71
2021/12/13 05:01:21;;;;;;;10.35;7.47;;;12.50;99.90;;;;;;5064757;28;20425;-72
2021/12/13 05:03:51;;;;;;;11.50;7.50;;;12.50;99.90;;;;;;5068649;28;20411;-72
2021/12/13 05:06:20;;;;;;;12.02;7.75;;;12.40;99.90;;;;;;5049584;28;20419;-71
2021/12/13 05:08:49;;;;;;;12.40;7.88;;;12.40;99.90;;;;;;5051418;28;20479;-72
2021/12/13 05:11:15;;;;;;;13.45;7.63;;;12.40;99.90;;;;;;5046138;28;20423;-71
2021/12/13 05:13:54;;;;;;;12.73;7.80;;;12.40;99.90;;;;;;5060358;28;20435;-71
2021/12/13 05:16:45;;;;;;;10.73;7.73;;;12.40;99.90;;;;;;5062677;28;21213;-74
2021/12/13 05:19:14;;;;;;;12.15;7.93;;;12.40;99.90;;;;;;5065200;28;20425;-74
2021/12/13 05:21:43;;;;;;;15.00;7.90;;;12.40;99.90;;;;;;5058512;28;20427;-72
2021/12/13 05:24:19;;;;;;;10.98;7.72;;;12.40;99.90;;;;;;5069314;28;20449;-74
2021/12/13 05:26:58;;;;;;;11.30;7.63;;;12.40;99.90;;;;;;5060433;28;20445;-73
2021/12/13 05:29:33;;;;;;;11.03;7.37;;;12.40;99.90;;;;;;5056075;28;20890;-72
2021/12/13 05:32:10;;;;;;;12.60;7.67;;;12.40;99.90;;;;;;5058180;28;20484;-74
2021/12/13 05:34:44;;;;;;;12.18;7.43;;;12.40;99.90;;;;;;5061186;28;20495;-73
2021/12/13 05:37:10;;;;;;;11.82;7.20;;;12.40;99.90;;;;;;5062550;28;20420;-71
2021/12/13 05:39:37;;;;;;;12.15;6.88;;;12.40;99.90;;;;;;5064605;28;20407;-73
2021/12/13 05:42:10;;;;;;;10.85;6.70;;;12.40;99.90;;;;;;5062482;28;20426;-71
2021/12/13 05:44:42;;;;;;;10.70;7.07;;;12.40;99.90;;;;;;5062548;28;20409;-72
2021/12/13 05:47:21;;;;;;;13.38;7.55;;;12.40;99.90;;;;;;5059062;28;20413;-71
2021/12/13 05:49:48;;;;;;;11.88;7.10;;;12.40;99.90;;;;;;5041621;28;20429;-71
2021/12/13 05:52:18;;;;;;;12.85;6.90;;;12.40;99.90;;;;;;5061810;28;20405;-71
2021/12/13 05:54:52;;;;;;;11.90;6.73;;;12.40;99.90;;;;;;5039282;28;20418;-72
2021/12/13 05:57:21;;;;;;;11.57;6.65;;;12.40;99.90;;;;;;5056258;28;20421;-72
2021/12/13 05:59:58;;;;;;;11.10;6.43;;;12.40;99.90;;;;;;5054542;28;20755;-72
2021/12/13 06:03:01;;;;;;;11.10;6.45;;;12.40;99.90;;;;;;5060852;28;20420;-71
2021/12/13 06:05:51;;;;;;;9.80;5.90;;;12.40;99.90;;;;;;5044759;28;20495;-72
2021/12/13 06:08:33;;;;;;;13.93;6.40;;;12.40;99.90;;;;;;5065745;28;20384;-73
2021/12/13 06:11:06;;;;;;;12.18;6.43;;;12.40;99.90;;;;;;5057239;28;20472;-70
2021/12/13 06:13:44;;;;;;;11.13;6.07;;;12.40;99.90;;;;;;5066509;28;20399;-70
2021/12/13 06:16:28;;;;;;;11.57;5.90;;;12.40;99.90;;;;;;5057756;28;20432;-72
2021/12/13 06:18:57;;;;;;;10.13;5.85;;;12.40;99.90;;;;;;5064394;28;21137;-70
2021/12/13 06:21:41;;;;;;;9.65;5.88;;;12.40;99.90;;;;;;5058662;28;20441;-73
2021/12/13 06:24:08;;;;;;;8.73;5.57;;;12.40;99.90;;;;;;5063705;28;20478;-71
2021/12/13 06:26:35;;;;;;;10.43;5.70;;;12.40;99.90;;;;;;5055363;28;20421;-71
2021/12/13 06:29:03;;;;;;;8.80;6.10;;;12.40;99.90;;;;;;5035034;28;21085;-71
2021/12/13 06:31:45;;;;;;;10.57;5.70;;;12.40;99.90;;;;;;5062608;28;21157;-71
2021/12/13 06:34:16;;;;;;;8.85;5.85;;;12.40;99.90;;;;;;5064997;28;20912;-71
2021/12/13 06:36:48;;;;;;;9.25;5.40;;;12.40;99.90;;;;;;5067286;28;20426;-72
2021/12/13 06:39:19;;;;;;;9.50;5.20;;;12.40;99.90;;;;;;5064981;28;20409;-70
2021/12/13 06:41:58;;;;;;;12.30;6.18;;;12.40;99.90;;;;;;5081911;28;20448;-72
2021/12/13 06:44:34;;;;;;;9.48;5.97;;;12.40;99.90;;;;;;5067955;28;20439;-72
2021/12/13 06:47:08;;;;;;;9.90;5.28;;;12.40;99.90;;;;;;5049595;28;20403;-73
2021/12/13 06:49:43;;;;;;;11.07;5.55;;;12.50;99.90;;;;;;5068732;28;20421;-73
2021/12/13 06:52:29;;;;;;;8.50;5.43;;;12.40;99.90;;;;;;5067284;28;20403;-71
2021/12/13 06:55:03;;;;;;;12.43;5.82;;;12.40;99.90;;;;;;5051233;28;20473;-71
2021/12/13 06:57:39;;;;;;;11.00;5.20;;;12.40;99.90;;;;;;5066128;28;20399;-72
2021/12/13 07:00:12;;;;;;;9.60;5.57;;;12.40;99.90;;;;;;5070157;28;20410;-73
2021/12/13 07:02:40;;;;;;;10.02;5.50;;;12.40;99.90;;;;;;5049058;28;20502;-72
2021/12/13 07:05:13;;;;;;;12.15;5.28;;;12.40;99.90;;;;;;5065795;28;20557;-74
2021/12/13 07:07:50;;;;;;;11.13;5.40;;;12.40;99.90;;;;;;5066802;28;20490;-73
2021/12/13 07:10:21;;;;;;;10.38;5.50;;;12.40;99.90;;;;;;5070647;28;20509;-70
2021/12/13 07:12:52;;;;;;;10.68;5.05;;;12.40;99.90;;;;;;5073861;28;20420;-72
2021/12/13 07:15:42;;;;;;;12.80;5.10;;;12.40;99.90;;;;;;5067899;28;20974;-72
2021/12/13 07:18:13;;;;;;;8.77;5.10;;;12.40;99.90;;;;;;5030629;28;20418;-72
2021/12/13 07:20:47;;;;;;;10.73;5.18;;;12.40;99.90;;;;;;5071819;28;20900;-71
2021/12/13 07:23:13;;;;;;;8.55;5.00;;;12.40;99.90;;;;;;5048399;28;20416;-71
2021/12/13 07:25:41;;;;;;;8.80;5.10;;;12.40;99.90;;;;;;5038909;28;20485;-73
2021/12/13 07:28:08;;;;;;;10.95;5.32;;;12.40;99.90;;;;;;5072307;28;20569;-72
2021/12/13 07:30:36;;;;;;;8.43;4.85;;;12.30;99.90;;;;;;5069427;28;20981;-72
2021/12/13 07:33:12;;;;;;;8.60;4.80;;;12.40;99.90;;;;;;5078570;28;20410;-71
2021/12/13 07:35:42;;;;;;;10.32;5.20;;;12.30;99.90;;;;;;5067603;28;20463;-70
2021/12/13 07:38:23;;;;;;;12.13;5.10;;;12.30;99.90;;;;;;5068837;28;20460;-72
2021/12/13 07:40:50;;;;;;;9.80;5.70;;;12.30;99.90;;;;;;5065648;28;20425;-72
2021/12/13 07:43:34;;;;;;;10.10;5.65;;;12.40;99.90;;;;;;5061776;28;20422;-72
2021/12/13 07:46:11;;;;;;;11.77;5.65;;;12.30;99.90;;;;;;5063394;28;20411;-71
2021/12/13 07:48:42;;;;;;;12.40;5.50;;;12.40;99.90;;;;;;5062850;28;20443;-73
2021/12/13 07:51:48;;;;;;;9.52;5.68;;;12.30;99.90;;;;;;5062598;28;20421;-71
2021/12/13 07:54:17;;;;;;;9.43;5.50;;;12.30;99.90;;;;;;5019961;28;21023;-72
2021/12/13 07:56:56;;;;;;;11.85;6.15;;;12.30;99.90;;;;;;5061327;28;20404;-71
2021/12/13 07:59:31;;;;;;;12.50;6.10;;;12.30;99.90;;;;;;5044827;28;20486;-72
2021/12/13 08:02:04;;;;;;;11.87;6.40;;;12.30;99.90;;;;;;5056330;28;20885;-72
2021/12/13 08:04:48;;;;;;;11.10;6.57;;;12.20;99.90;;;;;;5045677;28;20426;-70
2021/12/13 08:07:21;;;;;;;12.88;6.75;;;12.30;99.90;;;;;;5045464;28;20407;-72
2021/12/13 08:10:28;;;;;;;10.52;6.80;;;12.30;99.90;;;;;;5063247;28;20415;-71
2021/12/13 08:13:06;;;;;;;13.18;7.80;;;12.30;99.90;;;;;;5064228;28;20414;-72
2021/12/13 08:16:03;;;;;;;13.93;7.40;;;12.30;99.90;;;;;;5046889;28;20399;-74
2021/12/13 08:18:35;;;;;;;13.75;7.40;;;12.30;99.90;;;;;;5031036;28;21215;-71
2021/12/13 08:21:23;;;;;;;14.02;7.47;;;12.30;99.90;;;;;;5059664;28;20419;-72
2021/12/13 08:23:58;;;;;;;10.13;7.17;;;12.30;99.90;;;;;;5065086;28;20499;-71
2021/12/13 08:26:35;;;;;;;14.90;7.68;;;12.30;99.90;;;;;;5045250;28;20411;-70
2021/12/13 08:29:08;;;;;;;12.40;7.50;;;12.30;99.90;;;;;;5060021;28;20411;-71
2021/12/13 08:31:36;;;;;;;13.35;7.72;;;12.20;99.90;;;;;;5068352;28;20427;-70
2021/12/13 08:34:12;;;;;;;14.50;7.75;;;12.30;99.90;;;;;;5066091;28;20403;-72
2021/12/13 08:36:44;;;;;;;10.30;7.30;;;12.30;99.90;;;;;;5065571;28;20457;-71
2021/12/13 08:39:25;;;;;;;13.15;8.00;;;12.20;99.90;;;;;;5065958;28;20439;-71
2021/12/13 08:41:56;;;;;;;11.97;8.17;;;12.20;99.90;;;;;;5065118;28;20498;-73
2021/12/13 08:44:36;;;;;;;13.45;8.45;;;12.20;99.90;;;;;;5049800;28;22106;-72
2021/12/13 08:47:18;;;;;;;15.88;8.70;;;12.30;99.90;;;;;;5068560;28;20481;-72
2021/12/13 08:49:57;;;;;;;14.32;8.45;;;12.30;99.90;;;;;;5067326;28;20443;-70
2021/12/13 08:52:32;;;;;;;13.95;8.65;;;12.20;99.90;;;;;;5064699;28;20935;-70
2021/12/13 08:55:06;;;;;;;14.13;8.48;;;12.30;99.90;;;;;;5068764;28;20391;-73
2021/12/13 08:57:45;;;;;;;13.55;8.55;;;12.30;99.90;;;;;;5049244;28;20415;-73
2021/12/13 09:00:13;;;;;;;12.32;7.97;;;12.30;99.90;;;;;;5047458;28;20407;-71
2021/12/13 09:02:56;;;;;;;15.07;9.10;;;12.30;99.90;;;;;;5066058;28;20419;-72
2021/12/13 09:05:27;;;;;;;15.57;8.80;;;12.30;99.90;;;;;;5067719;28;20404;-71
2021/12/13 09:08:01;;;;;;;14.60;9.00;;;12.30;99.90;;;;;;5060186;28;20802;-71
2021/12/13 09:10:42;;;;;;;13.88;9.15;;;12.30;99.90;;;;;;5064675;28;20422;-73
2021/12/13 09:13:09;;;;;;;15.40;9.00;;;12.30;99.90;;;;;;5065675;28;20403;-71
2021/12/13 09:15:35;;;;;;;15.67;9.13;;;12.40;99.90;;;;;;5068238;28;20768;-70
2021/12/13 09:18:02;;;;;;;13.85;9.45;;;12.40;99.90;;;;;;5066060;28;20898;-71
2021/12/13 09:20:41;;;;;;;16.42;8.93;;;12.40;99.90;;;;;;5049955;28;20419;-71
2021/12/13 09:23:11;;;;;;;16.77;9.00;;;12.50;99.90;;;;;;5047151;28;20750;-71
2021/12/13 09:26:05;;;;;;;15.60;9.45;;;12.50;99.90;;;;;;5048099;28;20457;-71
2021/12/13 09:28:45;;;;;;;12.98;8.82;;;12.50;99.90;;;;;;5047296;28;20404;-71
2021/12/13 09:31:16;;;;;;;13.88;8.65;;;12.50;99.90;;;;;;5065131;28;20487;-72
2021/12/13 09:33:47;;;;;;;16.45;9.23;;;12.50;99.90;;;;;;5068880;28;20491;-71
2021/12/13 09:36:23;;;;;;;15.27;9.23;;;12.50;99.90;;;;;;5045371;28;20453;-71
2021/12/13 09:39:03;;;;;;;14.02;8.20;;;12.50;99.90;;;;;;5048291;28;20410;-71
2021/12/13 09:41:42;;;;;;;17.13;8.82;;;12.50;99.90;;;;;;5063195;28;20440;-71
2021/12/13 09:44:08;;;;;;;16.83;8.85;;;12.60;99.90;;;;;;5067079;28;20396;-70
2021/12/13 09:46:36;;;;;;;18.70;9.17;;;12.60;99.90;;;;;;5049992;28;20400;-71
2021/12/13 09:49:08;;;;;;;14.60;8.50;;;12.70;99.90;;;;;;5066672;28;20449;-71
2021/12/13 09:51:48;;;;;;;13.63;8.43;;;12.70;99.90;;;;;;5063704;28;20509;-72
2021/12/13 09:54:17;;;;;;;14.38;8.65;;;12.70;99.90;;;;;;5062157;28;21344;-70
2021/12/13 09:56:49;;;;;;;13.20;8.05;;;12.80;99.90;;;;;;5062088;28;20430;-72
2021/12/13 09:59:29;;;;;;;16.15;8.80;;;12.80;99.90;;;;;;5058387;28;20428;-71
2021/12/13 10:01:57;;;;;;;14.88;8.70;;;12.80;99.90;;;;;;5039719;28;20447;-70
2021/12/13 10:04:37;;;;;;;12.37;8.10;;;12.80;99.90;;;;;;5057129;28;20449;-70
2021/12/13 10:07:14;;;;;;;16.75;8.13;;;12.80;99.90;;;;;;5058941;28;20415;-71
2021/12/13 10:09:44;;;;;;;15.63;8.93;;;12.80;99.90;;;;;;5055686;28;21339;-70
2021/12/13 10:12:20;;;;;;;16.33;8.60;;;12.90;99.90;;;;;;5042337;28;20938;-70
2021/12/13 10:14:59;;;;;;;15.90;8.48;;;12.90;99.90;;;;;;5058786;28;20438;-71
2021/12/13 10:17:29;;;;;;;12.97;8.53;;;12.90;99.90;;;;;;5059793;28;20494;-72
2021/12/13 10:20:00;;;;;;;13.48;8.20;;;12.90;99.90;;;;;;5041551;28;20449;-72
2021/12/13 10:22:30;;;;;;;12.30;8.30;;;13.00;99.90;;;;;;5042979;28;20412;-71
2021/12/13 10:25:03;;;;;;;17.50;9.23;;;13.00;99.90;;;;;;5062373;28;20492;-71
2021/12/13 10:27:30;;;;;;;14.63;8.32;;;13.10;99.90;;;;;;5048434;28;20399;-70
2021/12/13 10:30:00;;;;;;;20.60;8.68;;;13.10;99.90;;;;;;5062925;28;20438;-70
2021/12/13 10:32:30;;;;;;;15.15;8.60;;;13.20;99.90;;;;;;5066053;28;20967;-70
2021/12/13 10:35:06;;;;;;;13.93;8.10;;;13.20;99.90;;;;;;5042365;28;20522;-70
2021/12/13 10:37:38;;;;;;;12.75;8.57;;;13.20;99.90;;;;;;5065452;28;20456;-70
2021/12/13 10:40:08;;;;;;;15.50;8.73;;;13.20;99.90;;;;;;5064277;28;20413;-71
2021/12/13 10:42:39;;;;;;;13.40;8.50;;;13.20;99.90;;;;;;5067345;28;20814;-71
2021/12/13 10:45:14;;;;;;;16.55;8.88;;;13.20;99.90;;;;;;5044340;28;20428;-71
2021/12/13 10:47:44;;;;;;;14.65;8.18;;;13.20;99.90;;;;;;5045662;28;20415;-72
2021/12/13 10:50:15;;;;;;;17.13;8.80;;;13.20;99.90;;;;;;5062007;28;20423;-70
2021/12/13 10:52:44;;;;;;;15.40;8.57;;;13.20;99.90;;;;;;5064244;28;20453;-70
2021/12/13 10:55:22;;;;;;;15.77;8.43;;;13.20;99.90;;;;;;5063165;28;20414;-71
2021/12/13 10:57:49;;;;;;;14.57;8.32;;;13.20;99.90;;;;;;5066292;28;20403;-71
2021/12/13 11:00:40;;;;;;;15.68;8.60;;;13.20;99.90;;;;;;5062619;28;20411;-71
2021/12/13 11:03:12;;;;;;;12.90;8.57;;;13.30;99.90;;;;;;5053457;28;20875;-70
2021/12/13 11:05:39;;;;;;;13.68;8.57;;;13.30;99.90;;;;;;5060071;28;20419;-71
2021/12/13 11:08:08;;;;;;;14.48;8.60;;;13.30;99.90;;;;;;5066907;28;20482;-71
2021/12/13 11:10:47;;;;;;;14.35;8.38;;;13.30;99.90;;;;;;5064053;28;20419;-71
2021/12/13 11:13:13;;;;;;;16.35;8.70;;;13.30;99.90;;;;;;5066195;28;20424;-71
2021/12/13 11:15:42;;;;;;;17.88;9.30;;;13.40;99.90;;;;;;5062470;28;20443;-71
2021/12/13 11:18:12;;;;;;;16.75;9.23;;;13.40;99.90;;;;;;5063818;28;20438;-71
2021/12/13 11:20:42;;;;;;;14.98;9.10;;;13.40;99.90;;;;;;5039301;28;20924;-71
2021/12/13 11:23:10;;;;;;;15.75;9.45;;;13.40;99.90;;;;;;5066139;28;20403;-72
2021/12/13 11:25:41;;;;;;;15.45;9.57;;;13.40;99.90;;;;;;5063128;28;20419;-71
2021/12/13 11:28:07;;;;;;;17.63;10.10;;;13.50;99.90;;;;;;5067282;28;20404;-71
2021/12/13 11:30:36;;;;;;;17.13;9.98;;;13.50;99.90;;;;;;5061710;28;20426;-70
2021/12/13 11:33:09;;;;;;;17.98;9.88;;;13.50;99.90;;;;;;5049421;28;20415;-72
2021/12/13 11:36:07;;;;;;;17.42;9.80;;;13.50;99.90;;;;;;5040945;28;20803;-71
2021/12/13 11:39:01;;;;;;;18.85;9.70;;;13.50;99.90;;;;;;5060494;28;20415;-71
2021/12/13 11:41:51;;;;;;;15.98;9.82;;;13.50;99.90;;;;;;5063511;28;20427;-71
2021/12/13 11:44:48;;;;;;;18.83;10.15;;;13.50;99.90;;;;;;5067397;28;20400;-71
2021/12/13 11:47:29;;;;;;;20.00;10.63;;;13.60;99.90;;;;;;5066937;28;20425;-72
2021/12/13 11:50:26;;;;;;;18.88;10.15;;;13.60;99.90;;;;;;5073986;28;20427;-72
2021/12/13 11:53:28;;;;;;;18.70;11.13;;;13.60;99.90;;;;;;5065649;28;20411;-72
2021/12/13 11:56:05;;;;;;;16.63;10.10;;;13.60;99.90;;;;;;5063225;28;20415;-70
2021/12/13 11:59:06;;;;;;;16.60;10.30;;;13.60;99.90;;;;;;5066195;28;20730;-71
2021/12/13 12:01:50;;;;;;;17.77;9.70;;;13.70;99.90;;;;;;5050330;28;20468;-71
2021/12/13 12:05:06;;;;;;;16.30;10.15;;;13.70;99.90;;;;;;5068926;28;20492;-71
2021/12/13 12:07:51;;;;;;;17.98;10.15;;;13.80;99.90;;;;;;5051391;28;20864;-70
2021/12/13 12:10:49;;;;;;;16.55;9.60;;;13.90;99.90;;;;;;5056840;28;20438;-69
2021/12/13 12:13:53;;;;;;;15.40;10.15;;;13.90;99.90;;;;;;5053642;28;20430;-70
2021/12/13 12:16:21;;;;;;;18.38;10.40;;;13.90;99.90;;;;;;5069152;28;20411;-70
2021/12/13 12:18:50;;;;;;;18.70;10.63;;;13.90;99.90;;;;;;5082307;28;20404;-71
2021/12/13 12:21:40;;;;;;;17.38;10.70;;;13.90;99.90;;;;;;5066909;28;20415;-71
2021/12/13 12:24:24;;;;;;;17.55;10.65;;;13.90;99.90;;;;;;5069665;28;20919;-71
2021/12/13 12:26:54;;;;;;;15.82;10.25;;;13.80;99.90;;;;;;5069398;28;20476;-71
2021/12/13 12:29:24;;;;;;;18.90;9.93;;;13.80;99.90;;;;;;5071195;28;20411;-71
2021/12/13 12:31:58;;;;;;;17.35;10.68;;;13.80;99.90;;;;;;5068884;28;20933;-71
2021/12/13 12:34:24;;;;;;;17.92;10.70;;;13.80;99.90;;;;;;5052095;28;20804;-71
2021/12/13 12:36:58;;;;;;;18.37;10.63;;;13.70;99.90;;;;;;5069138;28;20430;-73
2021/12/13 12:39:47;;;;;;;16.85;10.60;;;13.70;99.90;;;;;;5070494;28;20488;-70
2021/12/13 12:42:25;;;;;;;16.10;9.57;;;13.80;99.90;;;;;;5069473;28;20896;-71
2021/12/13 12:44:54;;;;;;;16.92;9.93;;;13.80;99.90;;;;;;5067750;28;20466;-70
2021/12/13 12:47:35;;;;;;;15.82;9.30;;;13.90;99.90;;;;;;5067570;28;21114;-70
2021/12/13 12:50:18;;;;;;;15.98;8.45;;;13.90;99.70;;;;;;5068097;28;20411;-71
2021/12/13 12:52:48;;;;;;;12.63;7.53;;;13.90;99.40;;;;;;5068678;28;20391;-71
2021/12/13 12:55:17;;;;;;;11.73;6.80;;;13.90;99.20;;;;;;5049131;28;20432;-71
2021/12/13 12:57:43;;;;;;;9.77;6.28;;;13.90;99.10;;;;;;5052022;28;20815;-70
2021/12/13 13:00:09;;;;;;;14.63;6.93;;;13.80;98.90;;;;;;5068830;28;20453;-69
2021/12/13 13:02:35;;;;;;;13.83;7.13;;;13.80;98.90;;;;;;5051482;28;20538;-70
2021/12/13 13:05:05;;;;;;;13.55;7.38;;;13.90;99.00;;;;;;5068584;28;20503;-68
2021/12/13 13:07:34;;;;;;;11.52;7.10;;;13.90;99.00;;;;;;5079824;28;20417;-70
2021/12/13 13:10:04;;;;;;;12.97;6.73;;;13.90;98.90;;;;;;5070051;28;20526;-70
2021/12/13 13:12:30;;;;;;;12.35;6.03;;;13.90;98.90;;;;;;5069708;28;20807;-71
2021/12/13 13:15:25;;;;;;;9.80;6.00;;;13.80;98.50;;;;;;5067599;28;20443;-71
2021/12/13 13:17:59;;;;;;;11.48;6.30;;;13.80;98.60;;;;;;5050776;28;20411;-71
2021/12/13 13:20:38;;;;;;;11.40;6.50;;;13.70;98.90;;;;;;5068238;28;20430;-69
2021/12/13 13:23:05;;;;;;;12.30;6.22;;;13.70;98.90;;;;;;5061770;28;20947;-69